sensor_id;sensor_type;location;lat;lon;timestamp;P1;durP1;ratioP1;P2;durP2;ratioP2
11931;SDS011;6025;51.368;6.788;2023-02-03T00:03:36;14.00;;;9.65;;
11931;SDS011;6025;51.368;6.788;2023-02-03T00:08:29;13.80;;;8.35;;
11931;SDS011;6025;51.368;6.788;2023-02-03T00:13:21;14.30;;;8.48;;
11931;SDS011;6025;51.368;6.788;2023-02-03T00:18:14;12.68;;;9.18;;
11931;SDS011;6025;51.368;6.788;2023-02-03T00:23:07;10.80;;;8.32;;
11931;SDS011;6025;51.368;6.788;2023-02-03T00:28:01;11.48;;;7.90;;
11931;SDS011;6025;51.368;6.788;2023-02-03T00:32:52;14.70;;;8.80;;
11931;SDS011;6025;51.368;6.788;2023-02-03T00:37:49;13.65;;;8.05;;
11931;SDS011;6025;51.368;6.788;2023-02-03T00:42:41;11.43;;;7.28;;
11931;SDS011;6025;51.368;6.788;2023-02-03T00:47:34;11.23;;;7.93;;
11931;SDS011;6025;51.368;6.788;2023-02-03T00:52:26;10.88;;;7.38;;
11931;SDS011;6025;51.368;6.788;2023-02-03T00:57:17;10.23;;;7.78;;
11931;SDS011;6025;51.368;6.788;2023-02-03T01:02:09;10.35;;;7.65;;
11931;SDS011;6025;51.368;6.788;2023-02-03T01:07:02;10.65;;;7.70;;
11931;SDS011;6025;51.368;6.788;2023-02-03T01:11:54;11.48;;;7.70;;
11931;SDS011;6025;51.368;6.788;2023-02-03T01:16:45;9.20;;;7.60;;
11931;SDS011;6025;51.368;6.788;2023-02-03T01:21:37;13.48;;;7.38;;
11931;SDS011;6025;51.368;6.788;2023-02-03T01:26:30;9.45;;;6.78;;
11931;SDS011;6025;51.368;6.788;2023-02-03T01:31:24;11.13;;;6.90;;
11931;SDS011;6025;51.368;6.788;2023-02-03T01:36:17;12.57;;;6.45;;
11931;SDS011;6025;51.368;6.788;2023-02-03T01:41:10;11.52;;;6.65;;
11931;SDS011;6025;51.368;6.788;2023-02-03T01:46:14;10.35;;;6.18;;
11931;SDS011;6025;51.368;6.788;2023-02-03T01:51:12;9.25;;;5.72;;
11931;SDS011;6025;51.368;6.788;2023-02-03T01:56:04;8.95;;;6.07;;
11931;SDS011;6025;51.368;6.788;2023-02-03T02:00:56;10.02;;;5.60;;
11931;SDS011;6025;51.368;6.788;2023-02-03T02:05:51;7.47;;;5.55;;
11931;SDS011;6025;51.368;6.788;2023-02-03T02:10:45;8.38;;;5.32;;
11931;SDS011;6025;51.368;6.788;2023-02-03T02:15:39;9.82;;;5.50;;
11931;SDS011;6025;51.368;6.788;2023-02-03T02:20:37;8.25;;;5.22;;
11931;SDS011;6025;51.368;6.788;2023-02-03T02:25:52;8.60;;;4.82;;
11931;SDS011;6025;51.368;6.788;2023-02-03T02:31:05;8.45;;;5.28;;
11931;SDS011;6025;51.368;6.788;2023-02-03T02:36:12;7.63;;;4.88;;
11931;SDS011;6025;51.368;6.788;2023-02-03T02:41:12;5.90;;;4.40;;
11931;SDS011;6025;51.368;6.788;2023-02-03T02:46:09;7.55;;;4.70;;
11931;SDS011;6025;51.368;6.788;2023-02-03T02:51:04;8.90;;;4.53;;
11931;SDS011;6025;51.368;6.788;2023-02-03T02:55:59;6.60;;;4.13;;
11931;SDS011;6025;51.368;6.788;2023-02-03T03:00:51;7.85;;;3.90;;
11931;SDS011;6025;51.368;6.788;2023-02-03T03:05:43;7.32;;;4.32;;
11931;SDS011;6025;51.368;6.788;2023-02-03T03:10:38;8.00;;;4.28;;
11931;SDS011;6025;51.368;6.788;2023-02-03T03:15:33;7.00;;;4.05;;
11931;SDS011;6025;51.368;6.788;2023-02-03T03:20:26;6.82;;;4.20;;
11931;SDS011;6025;51.368;6.788;2023-02-03T03:25:18;6.25;;;3.58;;
11931;SDS011;6025;51.368;6.788;2023-02-03T03:30:12;7.80;;;4.10;;
11931;SDS011;6025;51.368;6.788;2023-02-03T03:35:07;8.13;;;3.50;;
11931;SDS011;6025;51.368;6.788;2023-02-03T03:39:59;5.50;;;3.75;;
11931;SDS011;6025;51.368;6.788;2023-02-03T03:44:53;6.95;;;3.95;;
11931;SDS011;6025;51.368;6.788;2023-02-03T03:49:47;7.70;;;4.03;;
11931;SDS011;6025;51.368;6.788;2023-02-03T03:54:42;6.13;;;3.90;;
11931;SDS011;6025;51.368;6.788;2023-02-03T03:59:36;8.05;;;3.90;;
11931;SDS011;6025;51.368;6.788;2023-02-03T04:04:29;9.45;;;3.97;;
11931;SDS011;6025;51.368;6.788;2023-02-03T04:09:22;5.90;;;3.70;;
11931;SDS011;6025;51.368;6.788;2023-02-03T04:14:16;7.45;;;3.63;;
11931;SDS011;6025;51.368;6.788;2023-02-03T04:19:07;5.65;;;3.80;;
11931;SDS011;6025;51.368;6.788;2023-02-03T04:23:59;7.13;;;3.40;;
11931;SDS011;6025;51.368;6.788;2023-02-03T04:28:51;5.70;;;3.47;;
11931;SDS011;6025;51.368;6.788;2023-02-03T04:33:44;7.25;;;3.35;;
11931;SDS011;6025;51.368;6.788;2023-02-03T04:38:35;6.05;;;3.00;;
11931;SDS011;6025;51.368;6.788;2023-02-03T04:43:27;9.00;;;3.20;;
11931;SDS011;6025;51.368;6.788;2023-02-03T04:48:19;6.25;;;3.03;;
11931;SDS011;6025;51.368;6.788;2023-02-03T04:53:12;6.68;;;2.80;;
11931;SDS011;6025;51.368;6.788;2023-02-03T04:58:03;5.60;;;2.70;;
11931;SDS011;6025;51.368;6.788;2023-02-03T05:02:55;7.40;;;3.53;;
11931;SDS011;6025;51.368;6.788;2023-02-03T05:07:46;4.38;;;2.63;;
11931;SDS011;6025;51.368;6.788;2023-02-03T05:12:39;6.75;;;2.85;;
11931;SDS011;6025;51.368;6.788;2023-02-03T05:17:31;6.18;;;2.30;;
11931;SDS011;6025;51.368;6.788;2023-02-03T05:22:27;5.95;;;2.35;;
11931;SDS011;6025;51.368;6.788;2023-02-03T05:27:19;5.70;;;2.10;;
11931;SDS011;6025;51.368;6.788;2023-02-03T05:32:12;5.53;;;2.60;;
11931;SDS011;6025;51.368;6.788;2023-02-03T05:37:03;6.03;;;2.38;;
11931;SDS011;6025;51.368;6.788;2023-02-03T05:41:55;6.38;;;2.50;;
11931;SDS011;6025;51.368;6.788;2023-02-03T05:46:47;5.75;;;2.10;;
11931;SDS011;6025;51.368;6.788;2023-02-03T05:51:40;5.38;;;2.33;;
11931;SDS011;6025;51.368;6.788;2023-02-03T05:56:32;3.22;;;1.90;;
11931;SDS011;6025;51.368;6.788;2023-02-03T06:01:24;8.32;;;2.55;;
11931;SDS011;6025;51.368;6.788;2023-02-03T06:06:15;5.40;;;2.22;;
11931;SDS011;6025;51.368;6.788;2023-02-03T06:11:09;5.50;;;1.90;;
11931;SDS011;6025;51.368;6.788;2023-02-03T06:16:03;3.88;;;1.90;;
11931;SDS011;6025;51.368;6.788;2023-02-03T06:21:00;3.75;;;1.73;;
11931;SDS011;6025;51.368;6.788;2023-02-03T06:25:54;5.75;;;1.88;;
11931;SDS011;6025;51.368;6.788;2023-02-03T06:30:51;4.68;;;1.73;;
11931;SDS011;6025;51.368;6.788;2023-02-03T06:35:43;4.40;;;1.60;;
11931;SDS011;6025;51.368;6.788;2023-02-03T06:40:34;4.95;;;1.80;;
11931;SDS011;6025;51.368;6.788;2023-02-03T06:45:26;3.40;;;1.50;;
11931;SDS011;6025;51.368;6.788;2023-02-03T06:50:19;7.80;;;2.13;;
11931;SDS011;6025;51.368;6.788;2023-02-03T06:55:13;4.65;;;1.90;;
11931;SDS011;6025;51.368;6.788;2023-02-03T07:00:05;4.82;;;1.52;;
11931;SDS011;6025;51.368;6.788;2023-02-03T07:04:58;2.92;;;1.63;;
11931;SDS011;6025;51.368;6.788;2023-02-03T07:09:51;5.93;;;1.60;;
11931;SDS011;6025;51.368;6.788;2023-02-03T07:14:43;4.95;;;1.90;;
11931;SDS011;6025;51.368;6.788;2023-02-03T07:19:34;3.35;;;1.80;;
11931;SDS011;6025;51.368;6.788;2023-02-03T07:24:26;3.97;;;1.70;;
11931;SDS011;6025;51.368;6.788;2023-02-03T07:29:19;7.20;;;1.80;;
11931;SDS011;6025;51.368;6.788;2023-02-03T07:34:11;4.28;;;1.67;;
11931;SDS011;6025;51.368;6.788;2023-02-03T07:39:02;5.80;;;1.80;;
11931;SDS011;6025;51.368;6.788;2023-02-03T07:43:54;6.57;;;1.80;;
11931;SDS011;6025;51.368;6.788;2023-02-03T07:48:47;4.45;;;1.80;;
11931;SDS011;6025;51.368;6.788;2023-02-03T07:53:39;4.65;;;1.70;;
11931;SDS011;6025;51.368;6.788;2023-02-03T07:58:31;2.50;;;1.60;;
11931;SDS011;6025;51.368;6.788;2023-02-03T08:03:32;4.78;;;1.92;;
11931;SDS011;6025;51.368;6.788;2023-02-03T08:08:25;4.88;;;2.00;;
11931;SDS011;6025;51.368;6.788;2023-02-03T08:13:17;6.43;;;2.10;;
11931;SDS011;6025;51.368;6.788;2023-02-03T08:18:11;4.47;;;1.88;;
11931;SDS011;6025;51.368;6.788;2023-02-03T08:23:02;6.95;;;2.10;;
11931;SDS011;6025;51.368;6.788;2023-02-03T08:27:55;5.78;;;2.17;;
11931;SDS011;6025;51.368;6.788;2023-02-03T08:32:47;5.07;;;2.00;;
11931;SDS011;6025;51.368;6.788;2023-02-03T08:37:39;4.40;;;2.35;;
11931;SDS011;6025;51.368;6.788;2023-02-03T08:42:31;6.10;;;2.33;;
11931;SDS011;6025;51.368;6.788;2023-02-03T08:47:27;4.50;;;2.25;;
11931;SDS011;6025;51.368;6.788;2023-02-03T08:52:31;6.93;;;2.35;;
11931;SDS011;6025;51.368;6.788;2023-02-03T08:57:23;5.90;;;2.45;;
11931;SDS011;6025;51.368;6.788;2023-02-03T09:02:16;8.57;;;2.55;;
11931;SDS011;6025;51.368;6.788;2023-02-03T09:07:10;4.28;;;2.30;;
11931;SDS011;6025;51.368;6.788;2023-02-03T09:12:02;7.30;;;2.80;;
11931;SDS011;6025;51.368;6.788;2023-02-03T09:16:55;5.78;;;2.78;;
11931;SDS011;6025;51.368;6.788;2023-02-03T09:21:47;4.13;;;2.75;;
11931;SDS011;6025;51.368;6.788;2023-02-03T09:26:41;5.15;;;3.20;;
11931;SDS011;6025;51.368;6.788;2023-02-03T09:31:32;4.47;;;2.80;;
11931;SDS011;6025;51.368;6.788;2023-02-03T09:36:26;3.55;;;2.72;;
11931;SDS011;6025;51.368;6.788;2023-02-03T09:41:21;6.15;;;3.72;;
11931;SDS011;6025;51.368;6.788;2023-02-03T09:46:20;7.55;;;3.25;;
11931;SDS011;6025;51.368;6.788;2023-02-03T09:51:16;3.33;;;2.90;;
11931;SDS011;6025;51.368;6.788;2023-02-03T09:56:10;4.47;;;3.40;;
11931;SDS011;6025;51.368;6.788;2023-02-03T10:01:11;4.90;;;2.97;;
11931;SDS011;6025;51.368;6.788;2023-02-03T10:06:11;5.57;;;2.90;;
11931;SDS011;6025;51.368;6.788;2023-02-03T10:11:07;5.88;;;3.40;;
11931;SDS011;6025;51.368;6.788;2023-02-03T10:16:10;7.30;;;3.20;;
11931;SDS011;6025;51.368;6.788;2023-02-03T10:21:13;6.05;;;3.33;;
11931;SDS011;6025;51.368;6.788;2023-02-03T10:26:08;5.82;;;3.10;;
11931;SDS011;6025;51.368;6.788;2023-02-03T10:31:05;6.00;;;3.25;;
11931;SDS011;6025;51.368;6.788;2023-02-03T10:36:08;7.35;;;3.47;;
11931;SDS011;6025;51.368;6.788;2023-02-03T10:41:05;7.88;;;3.28;;
11931;SDS011;6025;51.368;6.788;2023-02-03T10:45:57;4.88;;;2.95;;
11931;SDS011;6025;51.368;6.788;2023-02-03T10:50:49;9.57;;;3.58;;
11931;SDS011;6025;51.368;6.788;2023-02-03T10:55:43;6.97;;;3.53;;
11931;SDS011;6025;51.368;6.788;2023-02-03T11:00:39;4.95;;;3.00;;
11931;SDS011;6025;51.368;6.788;2023-02-03T11:05:47;6.80;;;3.28;;
11931;SDS011;6025;51.368;6.788;2023-02-03T11:10:58;9.32;;;3.60;;
11931;SDS011;6025;51.368;6.788;2023-02-03T11:15:55;6.50;;;3.70;;
11931;SDS011;6025;51.368;6.788;2023-02-03T11:20:58;7.90;;;4.35;;
11931;SDS011;6025;51.368;6.788;2023-02-03T11:25:50;6.68;;;3.70;;
11931;SDS011;6025;51.368;6.788;2023-02-03T11:30:43;11.05;;;3.60;;
11931;SDS011;6025;51.368;6.788;2023-02-03T11:35:35;6.30;;;2.50;;
11931;SDS011;6025;51.368;6.788;2023-02-03T11:40:27;7.07;;;2.70;;
11931;SDS011;6025;51.368;6.788;2023-02-03T11:45:23;8.07;;;2.72;;
11931;SDS011;6025;51.368;6.788;2023-02-03T11:50:19;4.18;;;2.22;;
11931;SDS011;6025;51.368;6.788;2023-02-03T11:55:27;6.40;;;2.38;;
11931;SDS011;6025;51.368;6.788;2023-02-03T12:00:29;5.82;;;2.30;;
11931;SDS011;6025;51.368;6.788;2023-02-03T12:05:34;5.95;;;2.40;;
11931;SDS011;6025;51.368;6.788;2023-02-03T12:10:39;8.27;;;3.35;;
11931;SDS011;6025;51.368;6.788;2023-02-03T12:15:42;11.13;;;2.88;;
11931;SDS011;6025;51.368;6.788;2023-02-03T12:20:46;6.72;;;2.55;;
11931;SDS011;6025;51.368;6.788;2023-02-03T12:25:46;6.57;;;2.30;;
11931;SDS011;6025;51.368;6.788;2023-02-03T12:30:43;9.82;;;2.65;;
11931;SDS011;6025;51.368;6.788;2023-02-03T12:35:38;7.72;;;2.60;;
11931;SDS011;6025;51.368;6.788;2023-02-03T12:40:38;7.45;;;2.40;;
11931;SDS011;6025;51.368;6.788;2023-02-03T12:45:33;5.05;;;2.58;;
11931;SDS011;6025;51.368;6.788;2023-02-03T12:50:28;7.35;;;2.60;;
11931;SDS011;6025;51.368;6.788;2023-02-03T12:55:26;7.05;;;2.33;;
11931;SDS011;6025;51.368;6.788;2023-02-03T13:00:23;6.97;;;2.63;;
11931;SDS011;6025;51.368;6.788;2023-02-03T13:05:23;7.32;;;2.80;;
11931;SDS011;6025;51.368;6.788;2023-02-03T13:10:20;9.25;;;2.85;;
11931;SDS011;6025;51.368;6.788;2023-02-03T13:15:19;8.35;;;2.50;;
11931;SDS011;6025;51.368;6.788;2023-02-03T13:20:16;6.63;;;2.70;;
11931;SDS011;6025;51.368;6.788;2023-02-03T13:25:14;7.00;;;2.40;;
11931;SDS011;6025;51.368;6.788;2023-02-03T13:35:31;5.05;;;2.05;;
11931;SDS011;6025;51.368;6.788;2023-02-03T13:40:34;5.20;;;2.20;;
11931;SDS011;6025;51.368;6.788;2023-02-03T13:45:32;4.88;;;2.42;;
11931;SDS011;6025;51.368;6.788;2023-02-03T13:50:28;5.97;;;2.40;;
11931;SDS011;6025;51.368;6.788;2023-02-03T13:55:32;5.93;;;2.47;;
11931;SDS011;6025;51.368;6.788;2023-02-03T14:05:53;5.78;;;2.53;;
11931;SDS011;6025;51.368;6.788;2023-02-03T14:10:46;7.00;;;2.38;;
11931;SDS011;6025;51.368;6.788;2023-02-03T14:15:37;6.05;;;2.78;;
11931;SDS011;6025;51.368;6.788;2023-02-03T14:26:04;5.13;;;2.60;;
11931;SDS011;6025;51.368;6.788;2023-02-03T14:31:03;5.63;;;2.38;;
11931;SDS011;6025;51.368;6.788;2023-02-03T14:35:56;5.53;;;3.15;;
11931;SDS011;6025;51.368;6.788;2023-02-03T14:40:49;5.75;;;2.70;;
11931;SDS011;6025;51.368;6.788;2023-02-03T14:45:51;8.90;;;4.82;;
11931;SDS011;6025;51.368;6.788;2023-02-03T14:51:11;11.82;;;5.32;;
11931;SDS011;6025;51.368;6.788;2023-02-03T14:56:11;13.77;;;7.20;;
11931;SDS011;6025;51.368;6.788;2023-02-03T15:01:11;9.32;;;3.20;;
11931;SDS011;6025;51.368;6.788;2023-02-03T15:06:35;10.52;;;3.70;;
11931;SDS011;6025;51.368;6.788;2023-02-03T15:11:29;9.82;;;4.50;;
11931;SDS011;6025;51.368;6.788;2023-02-03T15:16:24;8.50;;;3.78;;
11931;SDS011;6025;51.368;6.788;2023-02-03T15:21:17;6.40;;;2.72;;
11931;SDS011;6025;51.368;6.788;2023-02-03T15:26:10;9.00;;;3.00;;
11931;SDS011;6025;51.368;6.788;2023-02-03T15:31:04;7.82;;;2.58;;
11931;SDS011;6025;51.368;6.788;2023-02-03T15:36:02;8.68;;;2.70;;
11931;SDS011;6025;51.368;6.788;2023-02-03T15:40:56;11.80;;;2.85;;
11931;SDS011;6025;51.368;6.788;2023-02-03T15:45:52;9.82;;;2.58;;
11931;SDS011;6025;51.368;6.788;2023-02-03T15:50:48;10.85;;;2.78;;
11931;SDS011;6025;51.368;6.788;2023-02-03T15:55:44;8.93;;;2.88;;
11931;SDS011;6025;51.368;6.788;2023-02-03T16:00:37;8.18;;;3.03;;
11931;SDS011;6025;51.368;6.788;2023-02-03T16:05:30;13.60;;;3.22;;
11931;SDS011;6025;51.368;6.788;2023-02-03T16:10:24;12.43;;;3.05;;
11931;SDS011;6025;51.368;6.788;2023-02-03T16:15:23;13.38;;;3.63;;
11931;SDS011;6025;51.368;6.788;2023-02-03T16:20:24;14.57;;;3.50;;
11931;SDS011;6025;51.368;6.788;2023-02-03T16:25:18;12.90;;;2.80;;
11931;SDS011;6025;51.368;6.788;2023-02-03T16:30:16;12.25;;;3.20;;
11931;SDS011;6025;51.368;6.788;2023-02-03T16:35:30;14.18;;;3.30;;
11931;SDS011;6025;51.368;6.788;2023-02-03T16:40:39;14.73;;;3.38;;
11931;SDS011;6025;51.368;6.788;2023-02-03T16:45:50;15.55;;;3.42;;
11931;SDS011;6025;51.368;6.788;2023-02-03T16:51:03;13.30;;;3.20;;
11931;SDS011;6025;51.368;6.788;2023-02-03T16:55:58;10.43;;;3.67;;
11931;SDS011;6025;51.368;6.788;2023-02-03T17:00:51;13.48;;;3.60;;
11931;SDS011;6025;51.368;6.788;2023-02-03T17:05:44;12.18;;;3.13;;
11931;SDS011;6025;51.368;6.788;2023-02-03T17:10:38;14.57;;;3.30;;
11931;SDS011;6025;51.368;6.788;2023-02-03T17:15:31;13.05;;;3.33;;
11931;SDS011;6025;51.368;6.788;2023-02-03T17:20:22;11.90;;;3.17;;
11931;SDS011;6025;51.368;6.788;2023-02-03T17:25:14;11.75;;;3.00;;
11931;SDS011;6025;51.368;6.788;2023-02-03T17:30:08;14.15;;;3.10;;
11931;SDS011;6025;51.368;6.788;2023-02-03T17:35:04;10.15;;;2.58;;
11931;SDS011;6025;51.368;6.788;2023-02-03T17:39:56;10.15;;;2.95;;
11931;SDS011;6025;51.368;6.788;2023-02-03T17:44:47;14.90;;;2.97;;
11931;SDS011;6025;51.368;6.788;2023-02-03T17:49:40;12.55;;;3.00;;
11931;SDS011;6025;51.368;6.788;2023-02-03T17:54:39;11.73;;;3.10;;
11931;SDS011;6025;51.368;6.788;2023-02-03T17:59:31;13.38;;;3.30;;
11931;SDS011;6025;51.368;6.788;2023-02-03T18:04:24;10.95;;;2.83;;
11931;SDS011;6025;51.368;6.788;2023-02-03T18:09:17;15.82;;;3.83;;
11931;SDS011;6025;51.368;6.788;2023-02-03T18:14:09;11.05;;;2.67;;
11931;SDS011;6025;51.368;6.788;2023-02-03T18:19:02;11.40;;;2.97;;
11931;SDS011;6025;51.368;6.788;2023-02-03T18:23:55;11.35;;;2.88;;
11931;SDS011;6025;51.368;6.788;2023-02-03T18:34:02;10.13;;;2.37;;
11931;SDS011;6025;51.368;6.788;2023-02-03T18:38:54;16.30;;;3.50;;
11931;SDS011;6025;51.368;6.788;2023-02-03T18:43:46;13.50;;;3.33;;
11931;SDS011;6025;51.368;6.788;2023-02-03T18:48:40;12.17;;;2.90;;
11931;SDS011;6025;51.368;6.788;2023-02-03T18:53:32;13.07;;;3.10;;
11931;SDS011;6025;51.368;6.788;2023-02-03T18:58:26;14.60;;;2.83;;
11931;SDS011;6025;51.368;6.788;2023-02-03T19:03:18;17.73;;;5.80;;
11931;SDS011;6025;51.368;6.788;2023-02-03T19:08:11;13.83;;;2.90;;
11931;SDS011;6025;51.368;6.788;2023-02-03T19:13:03;12.70;;;3.27;;
11931;SDS011;6025;51.368;6.788;2023-02-03T19:17:55;13.10;;;2.90;;
11931;SDS011;6025;51.368;6.788;2023-02-03T19:22:47;11.70;;;3.20;;
11931;SDS011;6025;51.368;6.788;2023-02-03T19:27:41;12.97;;;3.63;;
11931;SDS011;6025;51.368;6.788;2023-02-03T19:32:33;13.67;;;3.43;;
11931;SDS011;6025;51.368;6.788;2023-02-03T19:37:26;14.57;;;3.50;;
11931;SDS011;6025;51.368;6.788;2023-02-03T19:42:18;11.57;;;2.83;;
11931;SDS011;6025;51.368;6.788;2023-02-03T19:47:12;14.10;;;3.50;;
11931;SDS011;6025;51.368;6.788;2023-02-03T19:52:06;12.23;;;3.47;;
11931;SDS011;6025;51.368;6.788;2023-02-03T19:56:59;12.10;;;3.70;;
11931;SDS011;6025;51.368;6.788;2023-02-03T20:01:51;20.07;;;3.47;;
11931;SDS011;6025;51.368;6.788;2023-02-03T20:06:45;15.27;;;3.97;;
11931;SDS011;6025;51.368;6.788;2023-02-03T20:11:37;12.27;;;3.00;;
11931;SDS011;6025;51.368;6.788;2023-02-03T20:16:29;12.63;;;3.20;;
11931;SDS011;6025;51.368;6.788;2023-02-03T20:21:20;11.18;;;2.95;;
11931;SDS011;6025;51.368;6.788;2023-02-03T20:26:14;10.37;;;3.17;;
11931;SDS011;6025;51.368;6.788;2023-02-03T20:31:06;11.10;;;2.93;;
11931;SDS011;6025;51.368;6.788;2023-02-03T20:35:57;9.63;;;3.23;;
11931;SDS011;6025;51.368;6.788;2023-02-03T20:40:49;19.17;;;3.43;;
11931;SDS011;6025;51.368;6.788;2023-02-03T20:45:42;18.03;;;3.43;;
11931;SDS011;6025;51.368;6.788;2023-02-03T20:50:35;15.18;;;3.17;;
11931;SDS011;6025;51.368;6.788;2023-02-03T20:55:27;12.27;;;3.50;;
11931;SDS011;6025;51.368;6.788;2023-02-03T21:00:20;10.43;;;2.60;;
11931;SDS011;6025;51.368;6.788;2023-02-03T21:05:21;12.57;;;3.50;;
11931;SDS011;6025;51.368;6.788;2023-02-03T21:10:17;11.23;;;3.10;;
11931;SDS011;6025;51.368;6.788;2023-02-03T21:15:16;19.05;;;3.15;;
11931;SDS011;6025;51.368;6.788;2023-02-03T21:20:15;12.90;;;2.70;;
11931;SDS011;6025;51.368;6.788;2023-02-03T21:25:25;14.80;;;3.20;;
11931;SDS011;6025;51.368;6.788;2023-02-03T21:30:21;14.43;;;3.33;;
11931;SDS011;6025;51.368;6.788;2023-02-03T21:35:18;14.30;;;3.28;;
11931;SDS011;6025;51.368;6.788;2023-02-03T21:40:16;9.67;;;3.03;;
11931;SDS011;6025;51.368;6.788;2023-02-03T21:45:23;15.20;;;3.30;;
11931;SDS011;6025;51.368;6.788;2023-02-03T21:50:27;17.50;;;3.43;;
11931;SDS011;6025;51.368;6.788;2023-02-03T21:55:24;14.77;;;3.30;;
11931;SDS011;6025;51.368;6.788;2023-02-03T22:00:35;15.77;;;3.63;;
11931;SDS011;6025;51.368;6.788;2023-02-03T22:05:31;12.97;;;3.33;;
11931;SDS011;6025;51.368;6.788;2023-02-03T22:10:25;21.52;;;3.80;;
11931;SDS011;6025;51.368;6.788;2023-02-03T22:15:16;16.90;;;3.70;;
11931;SDS011;6025;51.368;6.788;2023-02-03T22:20:09;14.23;;;3.03;;
11931;SDS011;6025;51.368;6.788;2023-02-03T22:25:01;10.47;;;2.90;;
11931;SDS011;6025;51.368;6.788;2023-02-03T22:29:54;17.73;;;3.70;;
11931;SDS011;6025;51.368;6.788;2023-02-03T22:34:46;14.40;;;3.50;;
11931;SDS011;6025;51.368;6.788;2023-02-03T22:39:38;16.50;;;3.17;;
11931;SDS011;6025;51.368;6.788;2023-02-03T22:44:30;13.70;;;3.73;;
11931;SDS011;6025;51.368;6.788;2023-02-03T22:49:23;21.50;;;4.13;;
11931;SDS011;6025;51.368;6.788;2023-02-03T22:54:14;12.43;;;3.00;;
11931;SDS011;6025;51.368;6.788;2023-02-03T22:59:06;15.33;;;3.00;;
11931;SDS011;6025;51.368;6.788;2023-02-03T23:03:58;17.30;;;3.60;;
11931;SDS011;6025;51.368;6.788;2023-02-03T23:08:51;14.13;;;3.53;;
11931;SDS011;6025;51.368;6.788;2023-02-03T23:13:44;15.97;;;3.53;;
11931;SDS011;6025;51.368;6.788;2023-02-03T23:18:37;10.90;;;3.57;;
11931;SDS011;6025;51.368;6.788;2023-02-03T23:23:29;17.25;;;3.90;;
11931;SDS011;6025;51.368;6.788;2023-02-03T23:28:24;14.13;;;3.97;;
11931;SDS011;6025;51.368;6.788;2023-02-03T23:33:16;13.93;;;3.67;;
11931;SDS011;6025;51.368;6.788;2023-02-03T23:38:08;14.43;;;3.37;;
11931;SDS011;6025;51.368;6.788;2023-02-03T23:42:59;14.03;;;3.43;;
11931;SDS011;6025;51.368;6.788;2023-02-03T23:47:52;14.80;;;3.50;;
11931;SDS011;6025;51.368;6.788;2023-02-03T23:52:44;15.63;;;3.27;;
11931;SDS011;6025;51.368;6.788;2023-02-03T23:57:36;13.00;;;3.47;;
